createdAt,value
2023-01-17T00:02:08.293Z,6.00
2023-01-17T00:04:54.211Z,5.88
2023-01-17T00:07:41.724Z,5.90
2023-01-17T00:10:15.488Z,5.82
2023-01-17T00:12:52.004Z,5.69
2023-01-17T00:15:23.785Z,5.65
2023-01-17T00:17:51.202Z,5.60
2023-01-17T00:20:45.988Z,5.72
2023-01-17T00:23:40.400Z,5.74
2023-01-17T00:26:18.799Z,5.65
2023-01-17T00:28:46.988Z,5.50
2023-01-17T00:31:16.054Z,5.60
2023-01-17T00:33:43.248Z,5.64
2023-01-17T00:36:11.293Z,5.53
2023-01-17T00:38:39.828Z,5.64
2023-01-17T00:41:15.090Z,5.71
2023-01-17T00:44:00.580Z,5.58
2023-01-17T00:46:45.961Z,5.79
2023-01-17T00:49:31.245Z,5.72
2023-01-17T00:52:16.818Z,5.75
2023-01-17T00:55:02.142Z,5.49
2023-01-17T00:57:48.053Z,5.69
2023-01-17T01:00:34.313Z,5.65
2023-01-17T01:03:19.701Z,5.60
2023-01-17T01:06:05.108Z,5.29
2023-01-17T01:08:50.419Z,5.49
2023-01-17T01:11:38.297Z,5.58
2023-01-17T01:14:26.609Z,5.41
2023-01-17T01:17:11.817Z,5.44
2023-01-17T01:20:00.653Z,5.55
2023-01-17T01:22:46.061Z,5.04
2023-01-17T01:25:31.400Z,5.47
2023-01-17T01:28:31.366Z,5.49
2023-01-17T01:31:24.102Z,5.30
2023-01-17T01:33:52.331Z,5.12
2023-01-17T01:36:19.503Z,5.31
2023-01-17T01:38:46.579Z,5.26
2023-01-17T01:41:13.381Z,5.19
2023-01-17T01:43:54.117Z,5.43
2023-01-17T01:46:39.983Z,5.18
2023-01-17T01:49:20.664Z,5.31
2023-01-17T01:51:59.268Z,5.15
2023-01-17T01:54:33.413Z,5.04
2023-01-17T01:57:03.577Z,5.07
2023-01-17T01:59:31.009Z,5.08
2023-01-17T02:02:00.977Z,5.03
2023-01-17T02:04:28.848Z,5.08
2023-01-17T02:07:11.787Z,5.01
2023-01-17T02:09:38.731Z,4.94
2023-01-17T02:12:07.333Z,4.77
2023-01-17T02:14:34.253Z,4.84
2023-01-17T02:17:43.299Z,4.89
2023-01-17T02:20:40.388Z,4.91
2023-01-17T02:23:22.422Z,4.95
2023-01-17T02:26:29.894Z,5.14
2023-01-17T02:29:33.621Z,4.90
2023-01-17T02:32:27.636Z,4.87
2023-01-17T02:35:28.005Z,4.80
2023-01-17T02:38:17.673Z,5.05
2023-01-17T02:41:23.653Z,5.11
2023-01-17T02:43:53.373Z,4.91
2023-01-17T02:46:20.776Z,4.93
2023-01-17T02:48:49.433Z,4.92
2023-01-17T02:51:37.280Z,4.55
2023-01-17T02:54:52.713Z,4.65
2023-01-17T02:57:38.352Z,4.82
2023-01-17T03:01:01.257Z,4.83
2023-01-17T03:03:52.084Z,4.80
2023-01-17T03:06:28.340Z,4.75
2023-01-17T03:08:55.253Z,4.25
2023-01-17T03:11:22.214Z,4.55
2023-01-17T03:13:54.847Z,4.61
2023-01-17T03:16:24.079Z,4.25
2023-01-17T03:18:51.364Z,4.51
2023-01-17T03:21:18.164Z,4.60
2023-01-17T03:23:44.978Z,4.49
2023-01-17T03:26:11.814Z,4.67
2023-01-17T03:28:38.671Z,4.41
2023-01-17T03:31:05.960Z,4.34
2023-01-17T03:33:32.967Z,4.40
2023-01-17T03:36:00.290Z,4.52
2023-01-17T03:38:29.229Z,4.61
2023-01-17T03:40:56.309Z,4.72
2023-01-17T03:43:23.197Z,4.78
2023-01-17T03:45:52.179Z,4.63
2023-01-17T03:48:19.089Z,4.87
2023-01-17T03:50:50.076Z,4.85
2023-01-17T03:53:16.922Z,4.72
2023-01-17T03:55:46.590Z,4.82
2023-01-17T03:58:13.510Z,4.74
2023-01-17T04:00:40.400Z,4.79
2023-01-17T04:03:07.216Z,4.74
2023-01-17T04:05:34.198Z,4.68
2023-01-17T04:08:01.102Z,4.59
2023-01-17T04:10:27.892Z,4.60
2023-01-17T04:12:54.736Z,4.61
2023-01-17T04:15:21.601Z,4.51
2023-01-17T04:17:48.503Z,4.47
2023-01-17T04:20:32.295Z,4.39
2023-01-17T04:22:59.217Z,4.41
2023-01-17T04:25:27.354Z,4.43
2023-01-17T04:27:54.212Z,4.27
2023-01-17T04:30:21.149Z,4.42
2023-01-17T04:32:48.318Z,4.15
2023-01-17T04:35:15.690Z,4.42
2023-01-17T04:37:42.850Z,4.44
2023-01-17T04:40:11.101Z,4.42
2023-01-17T04:42:38.399Z,4.40
2023-01-17T04:45:06.750Z,4.39
2023-01-17T04:47:34.319Z,4.32
2023-01-17T04:50:01.126Z,4.18
2023-01-17T04:52:27.948Z,4.14
2023-01-17T04:54:54.765Z,4.10
2023-01-17T04:57:21.611Z,4.02
2023-01-17T04:59:48.518Z,3.98
2023-01-17T05:02:15.409Z,3.91
2023-01-17T05:04:42.233Z,3.88
2023-01-17T05:07:09.384Z,3.78
2023-01-17T05:09:36.198Z,3.88
2023-01-17T05:12:03.075Z,3.90
2023-01-17T05:14:30.188Z,3.89
2023-01-17T05:16:58.007Z,3.90
2023-01-17T05:19:26.263Z,3.90
2023-01-17T05:21:53.114Z,3.89
2023-01-17T05:24:20.297Z,3.89
2023-01-17T05:26:54.563Z,3.89
2023-01-17T05:29:21.992Z,3.91
2023-01-17T05:31:48.885Z,3.83
2023-01-17T05:34:15.713Z,3.82
2023-01-17T05:36:42.557Z,3.74
2023-01-17T05:39:09.505Z,3.68
2023-01-17T05:41:36.320Z,3.61
2023-01-17T05:44:03.189Z,3.65
2023-01-17T05:46:30.298Z,3.63
2023-01-17T05:48:57.304Z,3.49
2023-01-17T05:51:24.167Z,3.43
2023-01-17T05:53:50.969Z,3.38
2023-01-17T05:56:17.868Z,3.34
2023-01-17T05:58:44.723Z,3.33
2023-01-17T06:01:11.743Z,3.34
2023-01-17T06:03:38.599Z,3.19
2023-01-17T06:06:05.644Z,3.22
2023-01-17T06:08:32.456Z,3.16
2023-01-17T06:10:59.683Z,3.17
2023-01-17T06:13:26.497Z,3.19
2023-01-17T06:15:53.496Z,3.14
2023-01-17T06:18:20.432Z,3.16
2023-01-17T06:20:54.465Z,3.17
2023-01-17T06:23:22.383Z,3.12
2023-01-17T06:25:49.923Z,3.09
2023-01-17T06:28:20.107Z,3.04
2023-01-17T06:30:47.936Z,2.98
2023-01-17T06:33:15.582Z,2.95
2023-01-17T06:35:54.362Z,2.88
2023-01-17T06:38:21.640Z,2.84
2023-01-17T06:40:48.782Z,2.79
2023-01-17T06:43:15.836Z,2.72
2023-01-17T06:45:42.710Z,2.67
2023-01-17T06:48:09.518Z,2.60
2023-01-17T06:50:36.746Z,2.57
2023-01-17T06:53:06.573Z,2.49
2023-01-17T06:55:34.667Z,2.49
2023-01-17T06:58:03.007Z,2.45
2023-01-17T07:00:31.573Z,2.42
2023-01-17T07:02:58.536Z,2.31
2023-01-17T07:05:25.636Z,2.27
2023-01-17T07:07:53.545Z,2.26
2023-01-17T07:10:21.391Z,2.31
2023-01-17T07:12:48.273Z,2.34
2023-01-17T07:15:15.230Z,2.37
2023-01-17T07:17:42.150Z,2.45
2023-01-17T07:20:10.063Z,2.53
2023-01-17T07:22:37.708Z,2.65
2023-01-17T07:25:05.536Z,2.77
2023-01-17T07:27:33.503Z,2.92
2023-01-17T07:30:01.097Z,3.10
2023-01-17T07:32:29.585Z,3.41
2023-01-17T07:34:57.971Z,3.62
2023-01-17T07:37:26.352Z,3.86
2023-01-17T07:39:54.537Z,3.89
2023-01-17T07:42:23.916Z,3.95
2023-01-17T07:44:51.188Z,4.25
2023-01-17T07:47:18.108Z,4.45
2023-01-17T07:49:44.985Z,4.77
2023-01-17T07:52:11.785Z,5.16
2023-01-17T07:54:38.742Z,5.62
2023-01-17T07:57:05.863Z,6.07
2023-01-17T07:59:34.543Z,6.35
2023-01-17T08:02:01.588Z,6.85
2023-01-17T08:04:34.625Z,7.38
2023-01-17T08:07:02.465Z,8.04
2023-01-17T08:09:29.595Z,8.48
2023-01-17T08:11:56.414Z,8.95
2023-01-17T08:14:23.393Z,9.18
2023-01-17T08:16:50.316Z,9.71
2023-01-17T08:19:17.348Z,10.16
2023-01-17T08:21:44.253Z,10.61
2023-01-17T08:24:14.806Z,10.62
2023-01-17T08:26:41.770Z,10.97
2023-01-17T08:29:09.452Z,11.48
2023-01-17T08:31:36.699Z,11.78
2023-01-17T08:34:03.851Z,11.84
2023-01-17T08:36:31.242Z,11.54
2023-01-17T08:38:58.880Z,11.31
2023-01-17T08:41:29.271Z,10.79
2023-01-17T08:43:56.079Z,10.57
2023-01-17T08:46:22.996Z,10.69
2023-01-17T08:49:02.610Z,9.84
2023-01-17T08:51:31.468Z,9.64
2023-01-17T08:53:58.731Z,9.26
2023-01-17T08:56:26.893Z,9.15
2023-01-17T08:58:54.062Z,9.61
2023-01-17T09:01:20.947Z,9.80
2023-01-17T09:03:53.554Z,10.21
2023-01-17T09:06:20.870Z,10.26
2023-01-17T09:08:49.708Z,9.49
2023-01-17T09:11:17.729Z,9.17
2023-01-17T09:13:44.779Z,8.39
2023-01-17T09:16:11.776Z,7.93
2023-01-17T09:18:39.235Z,7.59
2023-01-17T09:21:17.950Z,7.92
2023-01-17T09:23:45.618Z,8.17
2023-01-17T09:26:22.536Z,8.43
2023-01-17T09:28:49.691Z,8.75
2023-01-17T09:31:17.670Z,8.79
2023-01-17T09:33:44.749Z,8.04
2023-01-17T09:36:11.867Z,9.39
2023-01-17T09:38:40.006Z,10.00
2023-01-17T09:41:41.641Z,10.84
2023-01-17T09:44:17.206Z,11.74
2023-01-17T09:46:48.558Z,12.21
2023-01-17T09:49:35.686Z,12.68
2023-01-17T09:52:03.505Z,13.19
2023-01-17T09:54:38.542Z,14.09
2023-01-17T09:57:32.596Z,15.02
2023-01-17T10:01:04.218Z,16.01
2023-01-17T10:04:03.314Z,16.01
2023-01-17T10:07:26.575Z,15.82
2023-01-17T10:10:36.334Z,15.96
2023-01-17T10:13:29.823Z,16.44
2023-01-17T10:16:26.523Z,16.70
2023-01-17T10:19:23.168Z,16.95
2023-01-17T10:22:02.251Z,16.29
2023-01-17T10:24:39.230Z,15.96
2023-01-17T10:27:25.293Z,15.92
2023-01-17T10:29:52.287Z,15.47
2023-01-17T10:32:23.739Z,15.34
2023-01-17T10:34:52.941Z,15.57
2023-01-17T10:37:23.139Z,15.07
2023-01-17T10:39:52.408Z,15.44
2023-01-17T10:42:49.716Z,16.02
2023-01-17T10:45:51.347Z,16.78
2023-01-17T10:48:43.327Z,17.11
2023-01-17T10:51:50.511Z,17.27
2023-01-17T10:54:40.275Z,16.96
2023-01-17T10:57:16.335Z,16.42
2023-01-17T10:59:44.197Z,16.17
2023-01-17T11:02:33.370Z,16.17
2023-01-17T11:05:09.624Z,15.97
2023-01-17T11:07:39.971Z,15.51
2023-01-17T11:10:15.201Z,15.64
2023-01-17T11:12:45.875Z,16.64
2023-01-17T11:15:12.605Z,16.64
2023-01-17T11:17:48.938Z,16.73
2023-01-17T11:20:28.469Z,16.48
2023-01-17T11:23:14.090Z,16.03
2023-01-17T11:25:49.415Z,14.98
2023-01-17T11:28:30.353Z,14.89
2023-01-17T11:31:18.542Z,14.11
2023-01-17T11:33:56.588Z,14.32
2023-01-17T11:36:28.898Z,13.66
2023-01-17T11:39:22.371Z,12.99
2023-01-17T11:41:49.357Z,12.83
2023-01-17T11:44:32.880Z,11.91
2023-01-17T11:47:17.054Z,11.88
2023-01-17T11:49:47.884Z,11.47
2023-01-17T11:52:34.365Z,12.16
2023-01-17T11:55:01.820Z,11.87
2023-01-17T11:57:33.365Z,12.00
2023-01-17T12:00:38.042Z,12.18
2023-01-17T12:03:40.712Z,12.12
2023-01-17T12:06:26.616Z,10.65
2023-01-17T12:09:11.572Z,11.36
2023-01-17T12:12:24.124Z,10.67
2023-01-17T12:15:19.551Z,10.49
2023-01-17T12:18:15.187Z,10.20
2023-01-17T12:21:12.938Z,10.28
2023-01-17T12:24:05.559Z,10.20
2023-01-17T12:26:42.332Z,10.60
2023-01-17T12:29:30.255Z,11.08
2023-01-17T12:32:35.657Z,10.74
2023-01-17T12:35:18.082Z,10.85
2023-01-17T12:38:00.253Z,10.28
2023-01-17T12:40:50.507Z,10.07
2023-01-17T12:43:33.396Z,10.47
2023-01-17T12:46:06.818Z,10.71
2023-01-17T12:48:37.865Z,10.93
2023-01-17T12:51:14.519Z,10.94
2023-01-17T12:54:15.659Z,10.66
2023-01-17T12:57:02.756Z,10.90
2023-01-17T12:59:51.282Z,10.51
2023-01-17T13:02:35.145Z,10.91
2023-01-17T13:05:23.794Z,10.87
2023-01-17T13:08:04.747Z,10.87
2023-01-17T13:10:41.384Z,10.86
2023-01-17T13:13:25.558Z,10.13
2023-01-17T13:16:15.409Z,10.37
2023-01-17T13:18:47.753Z,10.31
2023-01-17T13:21:36.125Z,9.82
2023-01-17T13:24:17.607Z,9.90
2023-01-17T13:27:04.927Z,9.78
2023-01-17T13:30:12.719Z,9.61
2023-01-17T13:33:18.292Z,9.59
2023-01-17T13:36:29.718Z,9.46
2023-01-17T13:39:33.409Z,9.42
2023-01-17T13:42:57.027Z,9.25
2023-01-17T13:45:36.168Z,9.14
2023-01-17T13:48:18.679Z,9.35
2023-01-17T13:50:50.911Z,9.07
2023-01-17T13:53:36.837Z,9.11
2023-01-17T13:56:26.996Z,9.57
2023-01-17T13:58:54.899Z,9.51
2023-01-17T14:01:25.065Z,9.79
2023-01-17T14:03:52.556Z,10.96
2023-01-17T14:06:37.466Z,12.98
2023-01-17T14:09:41.032Z,14.79
2023-01-17T14:12:10.750Z,15.89
2023-01-17T14:14:40.799Z,17.83
2023-01-17T14:17:16.655Z,19.55
2023-01-17T14:19:48.485Z,20.87
2023-01-17T14:22:49.600Z,21.79
2023-01-17T14:25:41.204Z,21.71
2023-01-17T14:28:37.585Z,21.52
2023-01-17T14:31:10.470Z,22.38
2023-01-17T14:33:40.862Z,22.89
2023-01-17T14:36:32.650Z,21.79
2023-01-17T14:38:59.578Z,20.51
2023-01-17T14:41:28.420Z,17.04
2023-01-17T14:43:56.082Z,14.36
2023-01-17T14:46:34.208Z,11.61
2023-01-17T14:49:14.727Z,10.76
2023-01-17T14:51:41.513Z,9.87
2023-01-17T14:54:21.992Z,9.00
2023-01-17T14:56:48.831Z,8.70
2023-01-17T14:59:22.455Z,8.40
2023-01-17T15:02:07.722Z,8.50
2023-01-17T15:04:39.371Z,8.39
2023-01-17T15:07:07.775Z,7.96
2023-01-17T15:09:38.527Z,7.71
2023-01-17T15:12:14.357Z,7.78
2023-01-17T15:14:45.757Z,7.65
2023-01-17T15:17:24.368Z,7.50
2023-01-17T15:19:57.876Z,7.46
2023-01-17T15:22:26.438Z,7.47
2023-01-17T15:24:53.736Z,7.37
2023-01-17T15:27:21.175Z,7.32
2023-01-17T15:29:48.629Z,7.09
2023-01-17T15:32:22.534Z,6.99
2023-01-17T15:34:51.354Z,6.97
2023-01-17T15:37:33.076Z,7.04
2023-01-17T15:40:23.234Z,6.87
2023-01-17T15:43:01.124Z,6.76
2023-01-17T15:45:33.318Z,6.69
2023-01-17T15:48:42.205Z,6.73
2023-01-17T15:51:12.241Z,6.71
2023-01-17T15:53:42.467Z,6.64
2023-01-17T15:56:33.726Z,6.57
2023-01-17T15:59:29.921Z,6.49
2023-01-17T16:01:58.251Z,6.42
2023-01-17T16:04:34.695Z,6.37
2023-01-17T16:07:27.130Z,6.32
2023-01-17T16:10:02.076Z,6.19
2023-01-17T16:12:28.885Z,6.20
2023-01-17T16:15:11.245Z,6.15
2023-01-17T16:17:40.751Z,6.13
2023-01-17T16:20:19.435Z,5.91
2023-01-17T16:22:47.261Z,5.81
2023-01-17T16:25:17.925Z,5.79
2023-01-17T16:27:46.098Z,5.80
2023-01-17T16:30:21.669Z,5.72
2023-01-17T16:32:49.802Z,5.52
2023-01-17T16:35:20.841Z,5.65
2023-01-17T16:38:15.624Z,5.69
2023-01-17T16:40:44.758Z,5.68
2023-01-17T16:43:13.805Z,5.69
2023-01-17T16:45:47.472Z,5.68
2023-01-17T16:48:14.871Z,5.53
2023-01-17T16:50:49.605Z,5.49
2023-01-17T16:53:28.111Z,5.68
2023-01-17T16:55:58.701Z,5.61
2023-01-17T16:58:26.736Z,5.64
2023-01-17T17:00:55.427Z,5.71
2023-01-17T17:03:22.547Z,5.59
2023-01-17T17:06:01.243Z,5.56
2023-01-17T17:08:29.358Z,5.56
2023-01-17T17:11:15.838Z,5.69
2023-01-17T17:13:48.721Z,5.70
2023-01-17T17:16:31.368Z,5.65
2023-01-17T17:19:07.675Z,5.63
2023-01-17T17:21:37.498Z,5.75
2023-01-17T17:24:05.224Z,5.72
2023-01-17T17:26:37.092Z,5.79
2023-01-17T17:29:06.012Z,5.83
2023-01-17T17:31:33.472Z,5.84
2023-01-17T17:34:01.872Z,5.88
2023-01-17T17:36:29.280Z,5.83
2023-01-17T17:38:57.119Z,5.85
2023-01-17T17:41:25.983Z,5.92
2023-01-17T17:43:53.818Z,5.85
2023-01-17T17:46:23.282Z,5.91
2023-01-17T17:48:50.393Z,5.75
2023-01-17T17:51:31.613Z,5.75
2023-01-17T17:54:02.111Z,5.78
2023-01-17T17:56:31.533Z,5.79
2023-01-17T17:58:59.937Z,5.76
2023-01-17T18:01:27.262Z,5.77
2023-01-17T18:03:57.540Z,5.75
2023-01-17T18:06:24.577Z,5.80
2023-01-17T18:08:52.219Z,5.82
2023-01-17T18:11:27.722Z,5.91
2023-01-17T18:13:58.302Z,5.93
2023-01-17T18:16:28.298Z,5.97
2023-01-17T18:18:57.451Z,5.90
2023-01-17T18:21:31.651Z,5.81
2023-01-17T18:24:02.628Z,5.74
2023-01-17T18:26:36.418Z,5.65
2023-01-17T18:29:05.349Z,5.78
2023-01-17T18:31:35.916Z,5.87
2023-01-17T18:34:10.139Z,5.94
2023-01-17T18:36:37.861Z,5.96
2023-01-17T18:39:29.758Z,5.84
2023-01-17T18:41:57.157Z,5.76
2023-01-17T18:44:24.319Z,5.71
2023-01-17T18:46:54.430Z,5.52
2023-01-17T18:49:21.426Z,5.54
2023-01-17T18:51:50.969Z,5.58
2023-01-17T18:54:19.835Z,5.40
2023-01-17T18:56:46.846Z,5.55
2023-01-17T18:59:15.997Z,5.40
2023-01-17T19:01:43.745Z,5.41
2023-01-17T19:04:13.024Z,5.58
2023-01-17T19:06:43.539Z,5.73
2023-01-17T19:09:13.041Z,5.76
2023-01-17T19:11:40.207Z,5.76
2023-01-17T19:14:07.458Z,5.69
2023-01-17T19:16:39.334Z,5.69
2023-01-17T19:19:10.153Z,5.66
2023-01-17T19:21:37.358Z,5.68
2023-01-17T19:24:04.543Z,5.72
2023-01-17T19:26:31.425Z,5.77
2023-01-17T19:28:59.950Z,5.82
2023-01-17T19:31:29.701Z,5.85
2023-01-17T19:33:58.917Z,5.90
2023-01-17T19:36:29.409Z,5.89
2023-01-17T19:39:04.454Z,5.91
2023-01-17T19:41:35.321Z,5.75
2023-01-17T19:44:08.779Z,5.86
2023-01-17T19:46:36.774Z,5.82
2023-01-17T19:49:08.080Z,5.84
2023-01-17T19:51:35.838Z,5.85
2023-01-17T19:54:04.105Z,5.82
2023-01-17T19:56:31.281Z,5.77
2023-01-17T19:59:01.172Z,5.79
2023-01-17T20:01:32.514Z,5.81
2023-01-17T20:04:01.389Z,5.73
2023-01-17T20:06:32.691Z,5.78
2023-01-17T20:08:59.577Z,5.69
2023-01-17T20:11:28.557Z,5.57
2023-01-17T20:13:58.168Z,5.62
2023-01-17T20:16:28.337Z,5.61
2023-01-17T20:18:55.317Z,5.54
2023-01-17T20:21:25.989Z,5.48
2023-01-17T20:23:54.394Z,5.37
2023-01-17T20:26:36.258Z,5.42
2023-01-17T20:29:16.168Z,5.40
2023-01-17T20:31:44.886Z,5.44
2023-01-17T20:34:13.876Z,5.39
2023-01-17T20:36:42.106Z,5.31
2023-01-17T20:39:12.777Z,5.28
2023-01-17T20:41:42.339Z,5.23
2023-01-17T20:44:15.336Z,5.13
2023-01-17T20:46:42.888Z,5.02
2023-01-17T20:49:16.884Z,4.96
2023-01-17T20:51:45.886Z,4.87
2023-01-17T20:54:16.203Z,4.87
2023-01-17T20:56:43.552Z,4.81
2023-01-17T20:59:22.695Z,4.79
2023-01-17T21:01:50.576Z,4.76
2023-01-17T21:04:22.943Z,4.72
2023-01-17T21:06:51.644Z,4.67
2023-01-17T21:09:19.965Z,4.66
2023-01-17T21:11:47.266Z,4.57
2023-01-17T21:14:14.489Z,4.55
2023-01-17T21:16:42.137Z,4.51
2023-01-17T21:19:11.877Z,4.46
2023-01-17T21:21:39.089Z,4.38
2023-01-17T21:24:06.267Z,4.38
2023-01-17T21:26:33.164Z,4.35
2023-01-17T21:29:03.667Z,4.35
2023-01-17T21:31:33.544Z,4.34
2023-01-17T21:34:06.260Z,4.36
2023-01-17T21:36:37.006Z,4.30
2023-01-17T21:39:12.856Z,4.30
2023-01-17T21:41:41.092Z,4.32
2023-01-17T21:44:22.384Z,4.32
2023-01-17T21:46:53.620Z,4.31
2023-01-17T21:49:22.800Z,4.27
2023-01-17T21:51:55.493Z,4.24
2023-01-17T21:54:44.156Z,4.24
2023-01-17T21:57:32.334Z,4.15
2023-01-17T21:59:59.205Z,4.16
2023-01-17T22:02:26.086Z,4.10
2023-01-17T22:04:54.529Z,4.18
2023-01-17T22:07:21.446Z,4.13
2023-01-17T22:09:48.349Z,4.12
2023-01-17T22:12:15.197Z,4.17
2023-01-17T22:14:42.005Z,4.13
2023-01-17T22:17:09.374Z,4.13
2023-01-17T22:19:36.299Z,4.10
2023-01-17T22:22:03.976Z,4.11
2023-01-17T22:24:30.829Z,4.16
2023-01-17T22:26:57.648Z,4.06
2023-01-17T22:29:24.548Z,4.12
2023-01-17T22:31:51.387Z,4.14
2023-01-17T22:34:20.354Z,4.13
2023-01-17T22:36:47.257Z,4.08
2023-01-17T22:39:14.059Z,3.96
2023-01-17T22:41:40.926Z,3.92
2023-01-17T22:44:08.520Z,3.93
2023-01-17T22:46:38.353Z,3.90
2023-01-17T22:49:07.645Z,3.86
2023-01-17T22:51:35.338Z,3.84
2023-01-17T22:54:02.238Z,3.76
2023-01-17T22:56:32.743Z,3.73
2023-01-17T22:59:00.852Z,3.72
2023-01-17T23:01:30.850Z,3.68
2023-01-17T23:04:03.636Z,3.65
2023-01-17T23:06:41.044Z,3.65
2023-01-17T23:09:13.860Z,3.60
2023-01-17T23:11:47.021Z,3.59
2023-01-17T23:14:53.927Z,3.56
2023-01-17T23:17:42.041Z,3.47
2023-01-17T23:20:11.102Z,3.43
2023-01-17T23:22:38.008Z,3.43
2023-01-17T23:25:11.411Z,3.39
2023-01-17T23:27:59.842Z,3.42
2023-01-17T23:30:39.186Z,3.41
2023-01-17T23:33:17.472Z,3.29
2023-01-17T23:35:46.320Z,3.27
2023-01-17T23:38:33.550Z,3.26
2023-01-17T23:41:22.757Z,3.18
2023-01-17T23:43:57.951Z,3.16
2023-01-17T23:46:27.122Z,3.06
2023-01-17T23:48:54.979Z,2.97
2023-01-17T23:51:22.047Z,2.85
2023-01-17T23:53:48.966Z,2.82
2023-01-17T23:56:22.983Z,2.78
2023-01-17T23:58:50.173Z,2.73
